YHN weather

Hornepayne Municipal Airport
Hornepayne, Ontario, Canada

Public forecast

Using degrees Celsius for public forecast. Weather courtesy of forecast.io.

METAR (pilot weather report)

Report is more than 6 hours old.

Closest report is Marathon Airport, 67.8 nm (125.5 km) WSW. Retrieved 2019/05/26 21:00 UTC (10 hours ago):

CYSP 262100Z 34005KT 330V040 15SM FEW047 FEW063 BKN100 BKN220 13/01 A3010 RMK SC1SC1AC3CC1 LAST STFD OBS/NEXT 271200UTC SLP205

TAF (pilot weather forecast)

Forecast is more than 12 hours old.

Closest forecast is Marathon Airport, 67.8 nm (125.5 km) WSW. Retrieved 2019/05/26 14:00 UTC (17 hours ago):

TAF CYSP 261338Z 2614/2621 35010KT P6SM BKN012 OVC060 TEMPO 2614/2616 SCT012 BKN060 FM261600 36010KT P6SM BKN030 TEMPO 2616/2619 P6SM -SHRA OVC020 FM261900 01008KT P6SM SCT030 BKN080 RMK NXT FCST WILL BE ISSUED AT 271345Z